Terminal Aerodrome Forecast
Issued by NWS

Home | Current Version | Previous Version | Text Only | Print | Product List | Glossary Off
Versions: 1 2 3 4 5 6 7 8 9 10 11 12 13 14

000
FTUS45 KGGW 262320
TAFOLF
TAF
KOLF 262320Z 2700/2724 08008KT 6SM -SHRASN FEW009 SCT015 OVC025
     FM270600 08006KT 5SM BR OVC003
     FM271200 05006KT 6SM -RASN BR OVC003
     FM271500 06010KT 6SM -RASN BR OVC003
     FM271800 07011KT P6SM -RA OVC010=

USA.gov is the U.S. government's official web portal to all federal, state and local government web resources and services.